Time;durP1;ratioP1;P1;durP2;ratioP2;P2;SDS_P1;SDS_P2;PMS_P1;PMS_P2;Temp;Humidity;BMP_temperature;BMP_pressure;BME280_temperature;BME280_humidity;BME280_pressure;Samples;Min_cycle;Max_cycle;Signal;HPM_P1;HPM_P2
2022/03/06 00:00:44;;;;;;;27.10;17.60;;;6.40;99.90;;;;;;5210261;28;20057;-76
2022/03/06 00:03:15;;;;;;;21.90;12.20;;;6.40;99.90;;;;;;5210548;28;20032;-76
2022/03/06 00:05:46;;;;;;;20.80;11.38;;;6.30;99.90;;;;;;5210321;28;20108;-77
2022/03/06 00:08:16;;;;;;;18.85;11.27;;;6.50;99.90;;;;;;5210327;28;20029;-75
2022/03/06 00:10:48;;;;;;;16.77;10.05;;;6.60;99.90;;;;;;5210549;28;20029;-77
2022/03/06 00:13:19;;;;;;;21.02;11.68;;;6.40;99.90;;;;;;5210181;28;20033;-75
2022/03/06 00:15:50;;;;;;;22.33;12.85;;;6.50;99.90;;;;;;5210097;28;20028;-76
2022/03/06 00:18:21;;;;;;;15.50;8.82;;;6.40;99.90;;;;;;5210053;28;20021;-77
2022/03/06 00:20:54;;;;;;;21.58;12.57;;;6.50;99.90;;;;;;5210029;28;20399;-77
2022/03/06 00:23:26;;;;;;;20.48;10.93;;;6.40;99.90;;;;;;5210098;28;20108;-77
2022/03/06 00:25:56;;;;;;;25.80;13.25;;;6.50;99.90;;;;;;5210849;28;20051;-77
2022/03/06 00:28:27;;;;;;;19.80;11.82;;;6.40;99.90;;;;;;5209944;28;20065;-77
2022/03/06 00:30:58;;;;;;;18.75;9.27;;;6.40;99.90;;;;;;5209934;28;20032;-77
2022/03/06 00:33:29;;;;;;;14.25;9.18;;;6.30;99.90;;;;;;5210270;28;20247;-77
2022/03/06 00:36:00;;;;;;;18.15;8.95;;;6.30;99.90;;;;;;5208463;28;20022;-76
2022/03/06 00:38:31;;;;;;;19.27;10.52;;;6.40;99.90;;;;;;5209179;28;20506;-77
2022/03/06 00:41:02;;;;;;;34.22;21.42;;;6.30;99.90;;;;;;5209948;28;20100;-76
2022/03/06 00:43:33;;;;;;;22.15;10.85;;;6.30;99.90;;;;;;5209772;28;20032;-76
2022/03/06 00:46:04;;;;;;;16.15;9.00;;;6.40;99.90;;;;;;5209379;28;20454;-77
2022/03/06 00:48:35;;;;;;;20.35;8.65;;;6.50;99.90;;;;;;5209498;28;20055;-76
2022/03/06 00:51:07;;;;;;;17.98;9.00;;;6.30;99.90;;;;;;5209785;28;20029;-77
2022/03/06 00:53:37;;;;;;;17.60;8.98;;;6.40;99.90;;;;;;5209472;28;20034;-76
2022/03/06 00:56:09;;;;;;;15.32;8.65;;;6.40;99.90;;;;;;5209456;28;20063;-78
2022/03/06 00:58:40;;;;;;;19.13;9.85;;;6.30;99.90;;;;;;5209335;28;20468;-75
2022/03/06 01:01:11;;;;;;;16.70;8.85;;;6.40;99.90;;;;;;5209141;28;20073;-76
2022/03/06 01:03:41;;;;;;;21.27;9.38;;;6.30;99.90;;;;;;5209106;28;20439;-77
2022/03/06 01:06:12;;;;;;;20.58;8.43;;;6.40;99.90;;;;;;5209303;28;20029;-78
2022/03/06 01:08:43;;;;;;;17.33;8.73;;;6.30;99.90;;;;;;5209120;28;20022;-77
2022/03/06 01:11:14;;;;;;;16.75;8.43;;;6.30;99.90;;;;;;5209069;28;20029;-76
2022/03/06 01:13:45;;;;;;;41.40;16.30;;;6.30;99.90;;;;;;5207953;28;20461;-75
2022/03/06 01:16:16;;;;;;;33.50;19.90;;;6.30;99.90;;;;;;5207768;28;20040;-75
2022/03/06 01:18:46;;;;;;;29.10;15.63;;;6.40;99.90;;;;;;5208784;28;20535;-76
2022/03/06 01:21:17;;;;;;;80.03;51.15;;;6.30;99.90;;;;;;5208918;28;20492;-75
2022/03/06 01:23:48;;;;;;;40.22;22.88;;;6.30;99.90;;;;;;5208818;28;20029;-75
2022/03/06 01:26:19;;;;;;;53.47;34.88;;;6.40;99.90;;;;;;5208807;28;20036;-76
2022/03/06 01:28:50;;;;;;;81.68;50.35;;;6.30;99.90;;;;;;5208699;28;20500;-76
2022/03/06 01:31:21;;;;;;;25.88;14.10;;;6.20;99.90;;;;;;5208710;28;20026;-75
2022/03/06 01:33:52;;;;;;;35.85;19.90;;;6.30;99.90;;;;;;5208597;28;20036;-75
2022/03/06 01:36:23;;;;;;;22.20;11.30;;;6.30;99.90;;;;;;5208641;28;20381;-75
2022/03/06 01:38:53;;;;;;;21.90;11.88;;;6.30;99.90;;;;;;5208629;28;20031;-75
2022/03/06 01:41:24;;;;;;;34.55;19.38;;;6.20;99.90;;;;;;5208774;28;20049;-76
2022/03/06 01:43:55;;;;;;;24.15;11.05;;;6.20;99.90;;;;;;5208510;28;20037;-75
2022/03/06 01:46:26;;;;;;;21.23;11.63;;;6.20;99.90;;;;;;5208413;28;20385;-76
2022/03/06 01:48:57;;;;;;;21.25;13.00;;;6.40;99.90;;;;;;5208269;28;20109;-76
2022/03/06 01:51:28;;;;;;;24.23;10.05;;;6.30;99.90;;;;;;5207291;28;20025;-75
2022/03/06 01:53:58;;;;;;;17.65;9.68;;;6.20;99.90;;;;;;5208221;28;20026;-76
2022/03/06 01:56:29;;;;;;;25.27;11.35;;;6.30;99.90;;;;;;5208209;28;20060;-75
2022/03/06 01:59:01;;;;;;;23.77;12.02;;;6.20;99.90;;;;;;5207920;28;20509;-75
2022/03/06 02:01:32;;;;;;;24.42;10.82;;;6.20;99.90;;;;;;5208176;28;20120;-75
2022/03/06 02:04:03;;;;;;;22.35;11.38;;;6.20;99.90;;;;;;5208469;28;20022;-75
2022/03/06 02:06:36;;;;;;;19.17;10.60;;;6.30;99.90;;;;;;5207960;28;20021;-75
2022/03/06 02:09:07;;;;;;;20.20;8.50;;;6.30;99.90;;;;;;5208516;28;20068;-76
2022/03/06 02:11:39;;;;;;;16.35;8.20;;;6.40;99.90;;;;;;5208028;28;20052;-76
2022/03/06 02:14:11;;;;;;;22.10;9.05;;;6.20;99.90;;;;;;5207931;28;20033;-76
2022/03/06 02:16:42;;;;;;;15.65;8.00;;;6.20;99.90;;;;;;5207842;28;20101;-75
2022/03/06 02:19:15;;;;;;;15.43;8.63;;;6.30;99.90;;;;;;5207725;28;20025;-76
2022/03/06 02:21:49;;;;;;;19.58;8.65;;;6.30;99.90;;;;;;5207941;28;20778;-75
2022/03/06 02:24:20;;;;;;;18.08;9.60;;;6.20;99.90;;;;;;5208012;28;20038;-75
2022/03/06 02:26:51;;;;;;;18.48;9.07;;;6.30;99.90;;;;;;5207659;28;20026;-75
2022/03/06 02:29:21;;;;;;;15.57;8.25;;;6.30;99.90;;;;;;5207379;28;20060;-75
2022/03/06 02:31:52;;;;;;;18.17;9.77;;;6.20;99.90;;;;;;5207546;28;20458;-75
2022/03/06 02:34:23;;;;;;;18.90;7.63;;;6.20;99.90;;;;;;5207801;28;20025;-76
2022/03/06 02:36:54;;;;;;;18.30;10.02;;;6.30;99.90;;;;;;5207590;28;20041;-76
2022/03/06 02:39:25;;;;;;;13.80;7.60;;;6.30;99.90;;;;;;5207419;28;20022;-75
2022/03/06 02:41:56;;;;;;;20.63;9.00;;;6.20;99.90;;;;;;5207522;28;20033;-75
2022/03/06 02:44:27;;;;;;;14.77;8.45;;;6.20;99.90;;;;;;5206010;28;20401;-75
2022/03/06 02:46:58;;;;;;;14.30;7.63;;;6.20;99.90;;;;;;5207324;28;20026;-75
2022/03/06 02:49:29;;;;;;;21.30;8.75;;;6.30;99.90;;;;;;5207372;28;20025;-75
2022/03/06 02:52:00;;;;;;;28.55;13.05;;;6.20;99.90;;;;;;5207180;28;20105;-75
2022/03/06 02:54:31;;;;;;;24.52;12.35;;;6.20;99.90;;;;;;5207227;28;20029;-76
2022/03/06 02:57:06;;;;;;;31.10;14.10;;;6.10;99.90;;;;;;5207202;28;20025;-75
2022/03/06 02:59:38;;;;;;;18.77;7.57;;;6.10;99.90;;;;;;5206927;28;20041;-75
2022/03/06 03:02:09;;;;;;;22.08;10.30;;;6.10;99.90;;;;;;5206886;28;20033;-75
2022/03/06 03:04:40;;;;;;;22.83;11.70;;;6.30;99.90;;;;;;5207035;28;20393;-75
2022/03/06 03:07:11;;;;;;;16.65;8.50;;;6.30;99.90;;;;;;5207089;28;20020;-75
2022/03/06 03:09:42;;;;;;;16.45;8.95;;;6.20;99.90;;;;;;5207236;28;20064;-75
2022/03/06 03:12:12;;;;;;;14.35;8.43;;;6.10;99.90;;;;;;5207043;28;20022;-75
2022/03/06 03:14:43;;;;;;;15.27;8.13;;;6.10;99.90;;;;;;5205689;28;20029;-76
2022/03/06 03:17:14;;;;;;;13.18;7.35;;;6.20;99.90;;;;;;5206875;28;20047;-76
2022/03/06 03:19:45;;;;;;;19.02;7.65;;;6.10;99.90;;;;;;5206968;28;20029;-75
2022/03/06 03:22:16;;;;;;;13.93;8.68;;;6.10;99.90;;;;;;5205725;28;20033;-76
2022/03/06 03:24:46;;;;;;;15.85;7.75;;;6.10;99.90;;;;;;5207015;28;20069;-75
2022/03/06 03:27:17;;;;;;;18.60;8.45;;;6.00;99.90;;;;;;5206987;28;20052;-75
2022/03/06 03:29:48;;;;;;;20.67;8.40;;;6.10;99.90;;;;;;5205590;28;20128;-75
2022/03/06 03:32:19;;;;;;;15.00;7.32;;;6.10;99.90;;;;;;5207165;28;20026;-75
2022/03/06 03:34:50;;;;;;;13.57;7.70;;;6.10;99.90;;;;;;5206461;28;20130;-75
2022/03/06 03:37:20;;;;;;;16.05;8.98;;;6.10;99.90;;;;;;5206933;28;20020;-75
2022/03/06 03:39:51;;;;;;;17.83;9.02;;;6.10;99.90;;;;;;5206101;28;20028;-74
2022/03/06 03:42:22;;;;;;;14.40;8.45;;;6.10;99.90;;;;;;5206903;28;20018;-75
2022/03/06 03:44:53;;;;;;;15.88;7.88;;;6.10;99.90;;;;;;5205321;28;20124;-75
2022/03/06 03:47:24;;;;;;;18.77;8.73;;;6.10;99.90;;;;;;5205376;28;20022;-75
2022/03/06 03:49:55;;;;;;;20.58;8.40;;;6.00;99.90;;;;;;5206691;28;20548;-75
2022/03/06 03:52:25;;;;;;;20.80;7.78;;;6.00;99.90;;;;;;5207064;28;20022;-76
2022/03/06 03:54:56;;;;;;;17.83;8.20;;;6.00;99.90;;;;;;5206408;28;20021;-75
2022/03/06 03:57:27;;;;;;;21.40;8.18;;;6.10;99.90;;;;;;5205395;28;20536;-75
2022/03/06 03:59:58;;;;;;;15.60;8.40;;;6.20;99.90;;;;;;5206388;28;20045;-75
2022/03/06 04:02:29;;;;;;;13.65;7.35;;;6.00;99.90;;;;;;5205364;28;20037;-75
2022/03/06 04:05:00;;;;;;;18.70;10.13;;;6.10;99.90;;;;;;5206533;28;20408;-76
2022/03/06 04:07:31;;;;;;;13.57;8.55;;;6.00;99.90;;;;;;5206441;28;20033;-75
2022/03/06 04:10:02;;;;;;;14.05;8.52;;;6.10;99.90;;;;;;5206491;28;20067;-75
2022/03/06 04:12:33;;;;;;;216.02;85.82;;;6.00;99.90;;;;;;5206838;28;20033;-78
2022/03/06 04:15:04;;;;;;;261.48;111.72;;;6.10;99.90;;;;;;5209695;28;20021;-75
2022/03/06 04:17:34;;;;;;;124.93;51.22;;;6.10;99.90;;;;;;5210047;28;20026;-78
2022/03/06 04:20:06;;;;;;;81.13;41.13;;;6.00;99.90;;;;;;5208819;28;20062;-75
2022/03/06 04:22:37;;;;;;;84.72;42.22;;;6.00;99.90;;;;;;5210345;28;20049;-78
2022/03/06 04:25:09;;;;;;;55.50;28.08;;;6.00;99.90;;;;;;5209899;28;20064;-75
2022/03/06 04:27:39;;;;;;;22.90;14.07;;;6.10;99.90;;;;;;5209863;28;20083;-74
2022/03/06 04:30:11;;;;;;;32.72;17.67;;;6.10;99.90;;;;;;5208658;28;20366;-74
2022/03/06 04:32:42;;;;;;;30.88;16.38;;;6.00;99.90;;;;;;5210034;28;20030;-75
2022/03/06 04:35:12;;;;;;;24.55;11.23;;;5.90;99.90;;;;;;5209804;28;20492;-75
2022/03/06 04:37:43;;;;;;;19.50;9.52;;;6.00;99.90;;;;;;5209722;28;20408;-76
2022/03/06 04:40:14;;;;;;;29.55;16.20;;;5.90;99.90;;;;;;5209696;28;20040;-74
2022/03/06 04:42:45;;;;;;;37.17;24.10;;;6.00;99.90;;;;;;5209704;28;20493;-75
2022/03/06 04:45:16;;;;;;;39.60;19.00;;;5.90;99.90;;;;;;5209550;28;20041;-74
2022/03/06 04:47:47;;;;;;;19.90;11.18;;;6.00;99.90;;;;;;5208256;28;20108;-75
2022/03/06 04:50:17;;;;;;;19.92;11.15;;;6.00;99.90;;;;;;5209607;28;20060;-75
2022/03/06 04:52:48;;;;;;;22.73;12.18;;;5.90;99.90;;;;;;5209784;28;20084;-75
2022/03/06 04:55:19;;;;;;;21.80;12.23;;;5.90;99.90;;;;;;5209586;28;20020;-77
2022/03/06 04:57:50;;;;;;;19.58;9.55;;;5.90;99.90;;;;;;5209202;28;20075;-75
2022/03/06 05:00:21;;;;;;;22.17;14.15;;;5.90;99.90;;;;;;5209269;28;20056;-75
2022/03/06 05:02:52;;;;;;;17.25;10.13;;;5.90;99.90;;;;;;5209275;28;20040;-75
2022/03/06 05:05:24;;;;;;;16.90;10.00;;;6.00;99.90;;;;;;5209240;28;20113;-75
2022/03/06 05:07:54;;;;;;;18.13;10.77;;;5.90;99.90;;;;;;5224459;28;20099;-75
2022/03/06 05:10:26;;;;;;;16.17;9.10;;;5.90;99.90;;;;;;5209156;28;20065;-77
2022/03/06 05:12:56;;;;;;;19.15;10.23;;;5.90;99.90;;;;;;5209062;28;20033;-75
2022/03/06 05:15:27;;;;;;;19.13;8.13;;;5.90;99.90;;;;;;5209034;28;20478;-76
2022/03/06 05:17:58;;;;;;;20.77;9.55;;;6.00;99.90;;;;;;5208913;28;20030;-75
2022/03/06 05:20:29;;;;;;;17.35;10.65;;;6.00;99.90;;;;;;5209028;28;20523;-77
2022/03/06 05:23:00;;;;;;;20.77;9.70;;;6.00;99.90;;;;;;5207654;28;20522;-76
2022/03/06 05:25:31;;;;;;;20.48;8.75;;;5.90;99.90;;;;;;5208598;28;20041;-78
2022/03/06 05:28:02;;;;;;;21.90;11.30;;;6.10;99.90;;;;;;5208649;28;20421;-76
2022/03/06 05:30:33;;;;;;;20.67;9.85;;;6.10;99.90;;;;;;5209184;28;20025;-75
2022/03/06 05:33:04;;;;;;;22.95;8.55;;;6.00;99.90;;;;;;5208637;28;20035;-75
2022/03/06 05:35:35;;;;;;;17.73;10.98;;;6.10;99.90;;;;;;5209027;28;20025;-75
2022/03/06 05:38:06;;;;;;;19.63;9.13;;;6.10;99.90;;;;;;5208717;28;20528;-76
2022/03/06 05:40:36;;;;;;;17.88;9.43;;;6.00;99.90;;;;;;5208631;28;20052;-77
2022/03/06 05:43:07;;;;;;;22.92;10.75;;;6.10;99.90;;;;;;5208533;28;20387;-75
2022/03/06 05:45:38;;;;;;;17.48;9.38;;;6.10;99.90;;;;;;5208401;28;20108;-75
2022/03/06 05:48:09;;;;;;;19.77;9.63;;;6.10;99.90;;;;;;5208475;28;20025;-76
2022/03/06 05:50:40;;;;;;;14.32;8.45;;;6.20;99.90;;;;;;5208410;28;20384;-77
2022/03/06 05:53:11;;;;;;;20.08;9.50;;;6.10;99.90;;;;;;5208077;28;20033;-76
2022/03/06 05:55:41;;;;;;;18.08;8.77;;;6.10;99.90;;;;;;5208171;28;20071;-75
2022/03/06 05:58:12;;;;;;;20.33;9.55;;;6.10;99.90;;;;;;5208349;28;20043;-75
2022/03/06 06:00:43;;;;;;;17.75;9.38;;;6.10;99.90;;;;;;5207992;28;20116;-78
2022/03/06 06:03:15;;;;;;;24.10;9.80;;;6.20;99.90;;;;;;5208292;28;20124;-76
2022/03/06 06:05:45;;;;;;;21.00;9.95;;;6.20;99.90;;;;;;5206947;28;20033;-74
2022/03/06 06:08:16;;;;;;;19.20;9.48;;;6.30;99.90;;;;;;5207772;28;20104;-75
2022/03/06 06:10:47;;;;;;;21.02;10.05;;;6.10;99.90;;;;;;5206767;28;20029;-75
2022/03/06 06:13:19;;;;;;;17.38;9.90;;;6.30;99.90;;;;;;5208149;28;20453;-75
2022/03/06 06:15:49;;;;;;;18.98;11.30;;;6.30;99.90;;;;;;5207758;28;20492;-77
2022/03/06 06:18:20;;;;;;;22.58;11.40;;;6.20;99.90;;;;;;5207693;28;20033;-75
2022/03/06 06:20:51;;;;;;;26.52;10.52;;;6.20;99.90;;;;;;5208060;28;20095;-76
2022/03/06 06:23:22;;;;;;;21.13;11.90;;;6.10;99.90;;;;;;5206455;28;20083;-77
2022/03/06 06:25:53;;;;;;;18.55;11.95;;;6.20;99.90;;;;;;5207722;28;20113;-76
2022/03/06 06:28:24;;;;;;;20.38;10.75;;;6.20;99.90;;;;;;5207437;28;20033;-77
2022/03/06 06:30:55;;;;;;;23.92;11.93;;;6.20;99.90;;;;;;5208120;28;20446;-75
2022/03/06 06:33:26;;;;;;;26.77;15.55;;;6.10;99.90;;;;;;5208087;28;20030;-75
2022/03/06 06:35:57;;;;;;;23.48;13.13;;;6.10;99.90;;;;;;5206907;28;20124;-75
2022/03/06 06:38:28;;;;;;;29.58;15.77;;;6.10;99.90;;;;;;5207483;28;20101;-77
2022/03/06 06:40:59;;;;;;;29.08;14.02;;;6.10;99.90;;;;;;5207526;28;20022;-77
2022/03/06 06:43:29;;;;;;;24.95;13.32;;;6.20;99.90;;;;;;5207297;28;20020;-77
2022/03/06 06:46:00;;;;;;;26.35;13.82;;;6.00;99.90;;;;;;5207370;28;20037;-77
2022/03/06 06:48:31;;;;;;;43.38;18.60;;;6.20;99.90;;;;;;5207306;28;20018;-77
2022/03/06 06:51:02;;;;;;;34.00;17.08;;;6.30;99.90;;;;;;5207417;28;20036;-77
2022/03/06 06:53:34;;;;;;;35.55;18.02;;;6.20;99.90;;;;;;5207173;28;20462;-77
2022/03/06 06:56:05;;;;;;;19.10;12.38;;;6.20;99.90;;;;;;5207149;28;20029;-76
2022/03/06 06:58:36;;;;;;;26.23;12.60;;;6.10;99.90;;;;;;5205758;28;20025;-77
2022/03/06 07:01:07;;;;;;;22.23;10.98;;;6.10;99.90;;;;;;5207248;28;20199;-76
2022/03/06 07:03:38;;;;;;;23.10;12.57;;;6.10;99.90;;;;;;5207327;28;20071;-78
2022/03/06 07:06:09;;;;;;;33.38;15.45;;;6.20;99.90;;;;;;5206101;28;20124;-77
2022/03/06 07:08:40;;;;;;;63.55;36.75;;;6.20;99.90;;;;;;5207063;28;20021;-78
2022/03/06 07:11:10;;;;;;;55.92;32.25;;;6.50;99.90;;;;;;5205739;28;20033;-76
2022/03/06 07:13:41;;;;;;;56.85;31.75;;;6.30;99.90;;;;;;5205760;28;20501;-77
2022/03/06 07:16:13;;;;;;;34.72;22.20;;;6.30;99.90;;;;;;5206829;28;20036;-78
2022/03/06 07:18:44;;;;;;;36.50;23.77;;;6.40;99.90;;;;;;5206930;28;20473;-78
2022/03/06 07:21:15;;;;;;;25.13;12.73;;;6.50;99.90;;;;;;5206940;28;20025;-76
2022/03/06 07:23:45;;;;;;;22.77;13.18;;;6.60;99.90;;;;;;5206821;28;20017;-76
2022/03/06 07:26:16;;;;;;;23.85;13.23;;;6.40;99.90;;;;;;5207593;28;20029;-77
2022/03/06 07:28:47;;;;;;;24.58;12.02;;;6.60;99.90;;;;;;5206756;28;20181;-76
2022/03/06 07:31:18;;;;;;;27.52;12.52;;;6.30;99.90;;;;;;5206558;28;20030;-79
2022/03/06 07:33:49;;;;;;;22.15;12.30;;;6.60;99.90;;;;;;5207244;28;20385;-77
2022/03/06 07:36:20;;;;;;;25.80;14.27;;;6.60;99.90;;;;;;5206967;28;20022;-77
2022/03/06 07:38:50;;;;;;;21.67;12.10;;;6.60;99.90;;;;;;5206956;28;20048;-75
2022/03/06 07:41:21;;;;;;;18.02;11.52;;;6.60;99.90;;;;;;5221940;28;20036;-74
2022/03/06 07:43:52;;;;;;;20.33;11.27;;;6.70;99.90;;;;;;5206697;28;20022;-77
2022/03/06 07:46:23;;;;;;;24.80;11.50;;;6.60;99.90;;;;;;5206575;28;20037;-77
2022/03/06 07:48:53;;;;;;;35.30;18.23;;;6.60;99.90;;;;;;5208284;28;20018;-75
2022/03/06 07:51:24;;;;;;;20.42;12.73;;;6.90;99.90;;;;;;5210705;28;20025;-75
2022/03/06 07:53:55;;;;;;;35.28;20.77;;;6.60;99.90;;;;;;5210708;28;20396;-77
2022/03/06 07:56:26;;;;;;;23.10;13.43;;;6.60;99.90;;;;;;5210493;28;20381;-79
2022/03/06 07:58:57;;;;;;;20.38;11.68;;;6.80;99.90;;;;;;5210007;28;20033;-78
2022/03/06 08:01:27;;;;;;;20.67;11.88;;;6.70;99.90;;;;;;5210116;28;20033;-75
2022/03/06 08:03:58;;;;;;;25.05;15.05;;;6.70;99.90;;;;;;5208861;28;20532;-75
2022/03/06 08:06:29;;;;;;;18.73;12.50;;;7.00;99.90;;;;;;5210376;28;20423;-75
2022/03/06 08:09:02;;;;;;;19.92;11.57;;;6.90;99.90;;;;;;5210227;28;20063;-77
2022/03/06 08:11:33;;;;;;;27.25;12.80;;;7.00;99.90;;;;;;5208992;28;20393;-76
2022/03/06 08:14:04;;;;;;;21.17;11.60;;;7.00;99.90;;;;;;5210193;28;20025;-76
2022/03/06 08:16:35;;;;;;;18.30;11.32;;;6.90;99.90;;;;;;5210068;28;20047;-76
2022/03/06 08:19:06;;;;;;;19.98;11.85;;;6.80;99.90;;;;;;5210089;28;20091;-76
2022/03/06 08:21:39;;;;;;;20.02;11.65;;;7.00;99.90;;;;;;5208558;28;20072;-76
2022/03/06 08:24:09;;;;;;;22.95;13.32;;;7.00;99.90;;;;;;5209968;28;20379;-75
2022/03/06 08:26:40;;;;;;;32.08;19.25;;;6.90;99.90;;;;;;5210000;28;20044;-76
2022/03/06 08:29:11;;;;;;;29.27;15.75;;;6.70;99.90;;;;;;5209918;28;20120;-77
2022/03/06 08:31:42;;;;;;;27.10;14.70;;;6.80;99.90;;;;;;5209622;28;20025;-77
2022/03/06 08:34:13;;;;;;;28.42;14.05;;;6.60;99.90;;;;;;5208681;28;20593;-76
2022/03/06 08:36:44;;;;;;;28.08;13.80;;;6.60;99.90;;;;;;5208571;28;20026;-79
2022/03/06 08:39:15;;;;;;;24.48;13.73;;;6.60;99.90;;;;;;5208169;28;20041;-76
2022/03/06 08:41:46;;;;;;;26.88;13.50;;;6.80;99.90;;;;;;5210323;28;20025;-78
2022/03/06 08:44:17;;;;;;;19.95;12.07;;;6.80;99.90;;;;;;5209555;28;20108;-76
2022/03/06 08:46:48;;;;;;;22.90;13.50;;;6.70;99.90;;;;;;5207757;28;20501;-77
2022/03/06 08:49:19;;;;;;;25.88;14.02;;;6.70;99.90;;;;;;5209500;28;20021;-80
2022/03/06 08:51:50;;;;;;;28.50;13.75;;;6.60;99.90;;;;;;5209462;28;20025;-76
2022/03/06 08:54:21;;;;;;;30.23;14.32;;;6.50;99.90;;;;;;5207768;28;20033;-77
2022/03/06 08:57:02;;;;;;;26.58;13.20;;;6.50;99.90;;;;;;5207869;28;20377;-78
2022/03/06 08:59:42;;;;;;;22.77;13.00;;;6.40;99.90;;;;;;5207181;28;20056;-75
2022/03/06 09:02:13;;;;;;;27.70;16.30;;;6.40;99.90;;;;;;5208510;28;20038;-76
2022/03/06 09:04:44;;;;;;;23.55;13.35;;;6.50;99.90;;;;;;5209478;28;20049;-76
2022/03/06 09:07:15;;;;;;;27.20;13.25;;;6.40;99.90;;;;;;5209164;28;20017;-76
2022/03/06 09:09:46;;;;;;;24.27;13.10;;;6.40;99.90;;;;;;5209147;28;20021;-79
2022/03/06 09:12:19;;;;;;;32.80;19.85;;;6.20;99.90;;;;;;5209012;28;20033;-78
2022/03/06 09:14:50;;;;;;;36.25;18.02;;;6.20;99.90;;;;;;5207651;28;20222;-77
2022/03/06 09:17:21;;;;;;;32.80;20.23;;;6.30;99.90;;;;;;5203583;28;20120;-77
2022/03/06 09:19:52;;;;;;;33.88;17.08;;;6.30;99.90;;;;;;5187201;28;20450;-77
2022/03/06 09:22:23;;;;;;;40.40;22.40;;;6.40;99.90;;;;;;5188551;28;20061;-77
2022/03/06 09:24:54;;;;;;;27.75;14.50;;;6.40;99.90;;;;;;5192150;28;20128;-76
2022/03/06 09:27:25;;;;;;;26.05;14.05;;;6.40;99.90;;;;;;5201633;28;20044;-76
2022/03/06 09:29:56;;;;;;;28.42;16.23;;;6.70;99.90;;;;;;5207777;28;20022;-80
2022/03/06 09:32:26;;;;;;;32.22;16.40;;;6.70;99.90;;;;;;5208987;28;20029;-78
2022/03/06 09:34:58;;;;;;;27.30;13.60;;;6.70;99.90;;;;;;5208053;28;20512;-77
2022/03/06 09:37:29;;;;;;;22.52;12.88;;;6.70;99.90;;;;;;5206806;28;20034;-77
2022/03/06 09:40:02;;;;;;;21.75;12.10;;;6.70;99.90;;;;;;5208149;28;20044;-78
2022/03/06 09:42:33;;;;;;;28.85;16.88;;;6.70;99.90;;;;;;5207706;28;20116;-79
2022/03/06 09:45:08;;;;;;;27.08;15.20;;;6.50;99.90;;;;;;5209639;28;20041;-75
2022/03/06 09:47:40;;;;;;;28.85;13.43;;;6.50;99.90;;;;;;5229085;28;20075;-76
2022/03/06 09:50:13;;;;;;;29.98;13.73;;;6.70;99.90;;;;;;5228982;28;20029;-76
2022/03/06 09:52:44;;;;;;;22.80;13.82;;;6.40;99.90;;;;;;5229306;28;20487;-75
2022/03/06 09:55:15;;;;;;;22.23;12.25;;;6.60;99.90;;;;;;5217065;28;20034;-75
2022/03/06 09:57:45;;;;;;;35.78;15.85;;;6.70;99.90;;;;;;5198899;28;20112;-76
2022/03/06 10:00:16;;;;;;;25.25;12.57;;;6.80;99.90;;;;;;5190432;28;20045;-81
2022/03/06 10:02:52;;;;;;;21.92;11.73;;;6.80;99.90;;;;;;5187278;28;20033;-76
2022/03/06 10:05:34;;;;;;;25.40;13.98;;;6.70;99.90;;;;;;5187353;28;20359;-78
2022/03/06 10:08:17;;;;;;;27.30;13.57;;;6.80;99.90;;;;;;5200562;28;20045;-75
2022/03/06 10:10:53;;;;;;;28.45;12.73;;;6.50;99.90;;;;;;5205765;28;20032;-76
2022/03/06 10:13:33;;;;;;;22.95;12.32;;;6.50;99.90;;;;;;5190968;28;20092;-76
2022/03/06 10:16:11;;;;;;;22.38;12.95;;;6.40;99.90;;;;;;5205381;28;20018;-81
2022/03/06 10:18:43;;;;;;;22.58;12.60;;;6.40;99.90;;;;;;5187205;28;20030;-78
2022/03/06 10:21:19;;;;;;;24.38;13.10;;;6.40;99.90;;;;;;5187259;28;20030;-76
2022/03/06 10:23:54;;;;;;;22.85;12.25;;;6.40;99.90;;;;;;5187148;28;20470;-77
2022/03/06 10:26:29;;;;;;;21.23;12.73;;;6.30;99.90;;;;;;5197433;28;20026;-78
2022/03/06 10:29:02;;;;;;;25.80;13.30;;;6.40;99.90;;;;;;5206110;28;20289;-78
2022/03/06 10:31:34;;;;;;;24.38;12.32;;;6.40;99.90;;;;;;5198080;28;20025;-78
2022/03/06 10:34:11;;;;;;;28.10;13.13;;;6.40;99.90;;;;;;5207480;28;20437;-76
2022/03/06 10:36:44;;;;;;;22.38;12.70;;;6.60;99.90;;;;;;5187072;28;20026;-80
2022/03/06 10:39:17;;;;;;;21.40;11.40;;;6.90;99.90;;;;;;5187049;28;20080;-79
2022/03/06 10:41:53;;;;;;;25.73;13.88;;;6.50;99.90;;;;;;5186857;28;20052;-79
2022/03/06 10:44:42;;;;;;;26.13;15.18;;;6.50;99.90;;;;;;5185785;28;20030;-80
2022/03/06 10:47:13;;;;;;;28.58;15.75;;;6.50;99.90;;;;;;5185468;28;20121;-76
2022/03/06 10:50:01;;;;;;;72.68;44.65;;;6.50;99.90;;;;;;5186682;28;20533;-82
2022/03/06 10:52:43;;;;;;;32.90;15.20;;;6.70;99.90;;;;;;5193597;28;20026;-76
2022/03/06 10:55:14;;;;;;;37.10;24.08;;;6.50;99.90;;;;;;5196204;28;20028;-76
2022/03/06 10:57:55;;;;;;;39.88;20.80;;;6.50;99.90;;;;;;5214040;28;20092;-76
2022/03/06 11:00:28;;;;;;;25.85;12.10;;;6.50;99.90;;;;;;5205768;28;20057;-80
2022/03/06 11:03:03;;;;;;;22.40;12.43;;;6.50;99.90;;;;;;5205222;28;20073;-82
2022/03/06 11:05:34;;;;;;;30.38;15.90;;;6.70;99.90;;;;;;5199037;28;20030;-83
2022/03/06 11:08:06;;;;;;;28.50;14.00;;;6.80;99.90;;;;;;5193713;28;20017;-84
2022/03/06 11:10:39;;;;;;;32.05;18.40;;;6.60;99.90;;;;;;5192548;28;20084;-83
2022/03/06 11:13:12;;;;;;;29.70;13.43;;;6.80;99.90;;;;;;5196324;28;20476;-77
2022/03/06 11:15:43;;;;;;;27.77;15.48;;;6.50;99.90;;;;;;5204201;28;20045;-77
2022/03/06 11:18:19;;;;;;;26.95;11.57;;;6.50;99.90;;;;;;5191386;28;20113;-76
2022/03/06 11:20:52;;;;;;;33.65;14.10;;;6.50;99.90;;;;;;5192812;28;20434;-77
2022/03/06 11:23:43;;;;;;;26.05;14.07;;;6.60;99.90;;;;;;5202162;28;20026;-77
2022/03/06 11:26:13;;;;;;;28.55;12.98;;;6.60;99.90;;;;;;5199292;28;20045;-76
2022/03/06 11:29:09;;;;;;;25.52;12.77;;;6.50;99.90;;;;;;5194279;28;20026;-77
2022/03/06 11:31:55;;;;;;;24.38;12.55;;;6.60;99.90;;;;;;5201962;28;20045;-80
2022/03/06 11:34:31;;;;;;;27.85;12.48;;;6.60;99.90;;;;;;5198683;28;20409;-82
2022/03/06 11:37:11;;;;;;;26.85;13.05;;;6.60;99.90;;;;;;5197774;28;20045;-80
2022/03/06 11:39:42;;;;;;;33.13;13.30;;;6.60;99.90;;;;;;5205512;28;20056;-83
2022/03/06 11:42:48;;;;;;;21.75;12.40;;;6.60;99.90;;;;;;5193067;28;20096;-77
2022/03/06 11:45:58;;;;;;;20.83;11.35;;;6.50;99.90;;;;;;5195800;28;20037;-82
2022/03/06 11:48:34;;;;;;;25.38;11.90;;;6.60;99.90;;;;;;5199441;28;20392;-82
2022/03/06 11:51:19;;;;;;;23.85;12.18;;;6.60;99.90;;;;;;5209447;28;20056;-76
2022/03/06 11:53:56;;;;;;;20.27;11.68;;;6.40;99.90;;;;;;5210871;28;20036;-76
2022/03/06 11:59:19;;;;;;;26.42;13.10;;;6.70;99.90;;;;;;5210351;28;20160;-77
2022/03/06 12:01:55;;;;;;;33.30;14.85;;;6.70;99.90;;;;;;5210571;28;20073;-76
2022/03/06 12:04:30;;;;;;;29.15;14.15;;;6.60;99.90;;;;;;5210609;28;20030;-79
2022/03/06 12:07:04;;;;;;;26.02;11.90;;;6.60;99.90;;;;;;5209129;28;20040;-76
2022/03/06 12:09:41;;;;;;;56.65;28.00;;;6.60;99.90;;;;;;5210359;28;20029;-79
2022/03/06 12:12:14;;;;;;;29.42;15.25;;;6.60;99.90;;;;;;5210313;28;20496;-80
2022/03/06 12:14:51;;;;;;;30.33;17.15;;;6.70;99.90;;;;;;5199358;28;20112;-78
2022/03/06 12:17:31;;;;;;;40.10;22.27;;;6.60;99.90;;;;;;5193953;28;20060;-76
2022/03/06 12:20:07;;;;;;;65.03;29.25;;;6.70;99.90;;;;;;5208225;28;20021;-76
2022/03/06 12:22:50;;;;;;;42.00;21.85;;;6.60;99.90;;;;;;5210216;28;20034;-76
2022/03/06 12:25:29;;;;;;;54.70;27.02;;;6.70;99.90;;;;;;5208769;28;20444;-76
2022/03/06 12:28:03;;;;;;;34.58;18.30;;;6.60;99.90;;;;;;5209902;28;20112;-77
2022/03/06 12:30:35;;;;;;;23.83;11.75;;;6.70;99.90;;;;;;5208487;28;20504;-76
2022/03/06 12:33:38;;;;;;;23.23;13.32;;;6.40;99.90;;;;;;5209473;28;20024;-77
2022/03/06 12:36:16;;;;;;;27.45;14.98;;;6.50;99.90;;;;;;5208293;28;20078;-79
2022/03/06 12:38:54;;;;;;;25.85;15.52;;;6.50;99.90;;;;;;5210039;28;20535;-76
2022/03/06 12:41:25;;;;;;;28.70;16.60;;;6.60;99.90;;;;;;5209844;28;20481;-77
2022/03/06 12:44:03;;;;;;;26.50;14.90;;;6.60;99.90;;;;;;5209203;28;20029;-76
2022/03/06 12:46:35;;;;;;;30.33;14.50;;;6.70;99.90;;;;;;5203901;28;20034;-76
2022/03/06 12:49:07;;;;;;;25.58;14.30;;;6.50;99.90;;;;;;5204387;28;20033;-76
2022/03/06 12:51:39;;;;;;;24.95;13.95;;;6.50;99.90;;;;;;5207122;28;20056;-76
2022/03/06 12:54:22;;;;;;;23.90;13.40;;;6.60;99.90;;;;;;5209558;28;20028;-77
2022/03/06 12:56:56;;;;;;;24.60;14.30;;;6.50;99.90;;;;;;5209715;28;20449;-75
2022/03/06 12:59:27;;;;;;;27.73;12.73;;;6.50;99.90;;;;;;5208239;28;20607;-75
2022/03/06 13:01:57;;;;;;;31.25;13.23;;;6.60;99.90;;;;;;5209068;28;20124;-76
2022/03/06 13:04:30;;;;;;;23.25;11.93;;;6.70;99.90;;;;;;5208971;28;20363;-75
2022/03/06 13:07:01;;;;;;;25.20;12.75;;;6.80;99.90;;;;;;5209360;28;20393;-75